PWSweather.com
Personal Weather Stations
Station Observations
PICKERING
North Yorkshire, PickeringGB

North YorkshirePickeringGB

Lat: 54.2494, Lon: -0.7725

Elevation: 192

Station Type: Oregon Scientific WMR100

http://www.yorkshirewalker.co.uk/weather/

High Low Average
Temperature 59.0°F15.0°C 38.7°F3.7°C 48.5°F9.2°C
Dew Point 42.8°F6.0°C 30.2°F-1.0°C 37.0°F2.8°C
Winds 7.3 mph 11.7 kmh 0.3 mph 0.5 kmh 3.0 mph WSW4.8 kmh WSW
Wind Gusts 12.1 mph19.5 kmh 1.3 mph2.1 kmh 6.0 mph9.7 kmh
Humidity 77% 50% 64%
Pressure 30.07 in1018.3 mb 29.74 in1007.1 mb -
Precipitation 0.00 in0.0 mm - -
Hour Temp Dew Point Humidity Winds Wind Gusts Pressure Precip Precip Rate Daily Precip Total
12:00 AM 45.1°F7.3°C 35.6°F2.0°C 68% 2.8 mph WNW4.5 kmh WNW 4.5 mph7.2 kmh 29.92 in1013.2 mb 0.00 in0.0 mm 0.00 in0.0 mm 0.00 in0.0 mm
12:05 AM 45.0°F7.2°C 35.6°F2.0°C 69% 2.6 mph WNW4.2 kmh WNW 5.6 mph9.0 kmh 29.92 in1013.2 mb 0.00 in0.0 mm 0.00 in0.0 mm 0.00 in0.0 mm
12:10 AM 44.8°F7.1°C 35.6°F2.0°C 68% 2.4 mph WNW3.9 kmh WNW 5.6 mph9.0 kmh 29.92 in1013.2 mb 0.00 in0.0 mm 0.00 in0.0 mm 0.00 in0.0 mm
12:15 AM 44.8°F7.1°C 35.6°F2.0°C 69% 2.1 mph WNW3.4 kmh WNW 5.6 mph9.0 kmh 29.92 in1013.2 mb 0.00 in0.0 mm 0.00 in0.0 mm 0.00 in0.0 mm
12:20 AM 44.6°F7.0°C 35.6°F2.0°C 69% 1.8 mph NW2.9 kmh NW 4.0 mph6.4 kmh 29.92 in1013.2 mb 0.00 in0.0 mm 0.00 in0.0 mm 0.00 in0.0 mm
12:25 AM 44.4°F6.9°C 35.6°F2.0°C 69% 2.1 mph NW3.4 kmh NW 4.0 mph6.4 kmh 29.92 in1013.2 mb 0.00 in0.0 mm 0.00 in0.0 mm 0.00 in0.0 mm
12:30 AM 44.4°F6.9°C 35.6°F2.0°C 69% 2.6 mph NW4.2 kmh NW 3.6 mph5.8 kmh 29.92 in1013.2 mb 0.00 in0.0 mm 0.00 in0.0 mm 0.00 in0.0 mm
12:35 AM 44.6°F7.0°C 35.6°F2.0°C 69% 2.8 mph NNW4.5 kmh NNW 4.3 mph6.9 kmh 29.92 in1013.2 mb 0.00 in0.0 mm 0.00 in0.0 mm 0.00 in0.0 mm
12:40 AM 44.4°F6.9°C 35.6°F2.0°C 69% 2.9 mph NNW4.7 kmh NNW 5.4 mph8.7 kmh 29.92 in1013.2 mb 0.00 in0.0 mm 0.00 in0.0 mm 0.00 in0.0 mm
12:45 AM 44.4°F6.9°C 35.6°F2.0°C 69% 3.4 mph NW5.5 kmh NW 5.6 mph9.0 kmh 29.92 in1013.2 mb 0.00 in0.0 mm 0.00 in0.0 mm 0.00 in0.0 mm
12:50 AM 44.6°F7.0°C 35.6°F2.0°C 69% 3.1 mph NW5.0 kmh NW 5.6 mph9.0 kmh 29.92 in1013.2 mb 0.00 in0.0 mm 0.00 in0.0 mm 0.00 in0.0 mm
12:55 AM 44.6°F7.0°C 35.6°F2.0°C 69% 3.4 mph NW5.5 kmh NW 7.6 mph12.2 kmh 29.92 in1013.2 mb 0.00 in0.0 mm 0.00 in0.0 mm 0.00 in0.0 mm
01:00 AM 44.6°F7.0°C 35.6°F2.0°C 69% 3.8 mph N6.1 kmh N 7.6 mph12.2 kmh 29.92 in1013.2 mb 0.00 in0.0 mm 0.00 in0.0 mm 0.00 in0.0 mm
01:05 AM 44.6°F7.0°C 35.6°F2.0°C 69% 3.7 mph NNW6.0 kmh NNW 6.3 mph10.1 kmh 29.92 in1013.2 mb 0.00 in0.0 mm 0.00 in0.0 mm 0.00 in0.0 mm
01:10 AM 44.4°F6.9°C 35.6°F2.0°C 69% 3.1 mph NW5.0 kmh NW 6.3 mph10.1 kmh 29.92 in1013.2 mb 0.00 in0.0 mm 0.00 in0.0 mm 0.00 in0.0 mm
01:15 AM 44.6°F7.0°C 35.6°F2.0°C 69% 4.4 mph NW7.1 kmh NW 7.8 mph12.6 kmh 29.92 in1013.2 mb 0.00 in0.0 mm 0.00 in0.0 mm 0.00 in0.0 mm
01:20 AM 44.6°F7.0°C 35.6°F2.0°C 69% 6.5 mph NW10.5 kmh NW 8.5 mph13.7 kmh 29.92 in1013.2 mb 0.00 in0.0 mm 0.00 in0.0 mm 0.00 in0.0 mm
01:25 AM 44.6°F7.0°C 35.6°F2.0°C 69% 4.9 mph NW7.9 kmh NW 8.5 mph13.7 kmh 29.92 in1013.2 mb 0.00 in0.0 mm 0.00 in0.0 mm 0.00 in0.0 mm
01:30 AM 44.4°F6.9°C 35.6°F2.0°C 69% 3.4 mph NW5.5 kmh NW 5.6 mph9.0 kmh 29.92 in1013.2 mb 0.00 in0.0 mm 0.00 in0.0 mm 0.00 in0.0 mm
01:35 AM 44.1°F6.7°C 33.8°F1.0°C 69% 3.4 mph NW5.5 kmh NW 6.3 mph10.1 kmh 29.92 in1013.2 mb 0.00 in0.0 mm 0.00 in0.0 mm 0.00 in0.0 mm
01:40 AM 44.1°F6.7°C 33.8°F1.0°C 69% 3.7 mph NW6.0 kmh NW 6.5 mph10.5 kmh 29.92 in1013.2 mb 0.00 in0.0 mm 0.00 in0.0 mm 0.00 in0.0 mm
01:45 AM 44.1°F6.7°C 33.8°F1.0°C 69% 4.6 mph NW7.4 kmh NW 7.4 mph11.9 kmh 29.92 in1013.2 mb 0.00 in0.0 mm 0.00 in0.0 mm 0.00 in0.0 mm
01:50 AM 43.9°F6.6°C 33.8°F1.0°C 69% 4.6 mph NW7.4 kmh NW 7.4 mph11.9 kmh 29.95 in1014.2 mb 0.00 in0.0 mm 0.00 in0.0 mm 0.00 in0.0 mm
01:55 AM 43.7°F6.5°C 33.8°F1.0°C 69% 4.0 mph NW6.4 kmh NW 6.5 mph10.5 kmh 29.95 in1014.2 mb 0.00 in0.0 mm 0.00 in0.0 mm 0.00 in0.0 mm
02:00 AM 43.5°F6.4°C 33.8°F1.0°C 69% 4.1 mph NW6.6 kmh NW 6.5 mph10.5 kmh 29.95 in1014.2 mb 0.00 in0.0 mm 0.00 in0.0 mm 0.00 in0.0 mm
02:05 AM 43.7°F6.5°C 33.8°F1.0°C 69% 4.8 mph NW7.7 kmh NW 7.8 mph12.6 kmh 29.95 in1014.2 mb 0.00 in0.0 mm 0.00 in0.0 mm 0.00 in0.0 mm
02:10 AM 43.7°F6.5°C 33.8°F1.0°C 69% 4.8 mph NNW7.7 kmh NNW 7.8 mph12.6 kmh 29.95 in1014.2 mb 0.00 in0.0 mm 0.00 in0.0 mm 0.00 in0.0 mm
02:15 AM 43.5°F6.4°C 33.8°F1.0°C 69% 4.0 mph NW6.4 kmh NW 6.9 mph11.1 kmh 29.95 in1014.2 mb 0.00 in0.0 mm 0.00 in0.0 mm 0.00 in0.0 mm
02:20 AM 43.5°F6.4°C 33.8°F1.0°C 69% 4.0 mph NW6.4 kmh NW 6.9 mph11.1 kmh 29.95 in1014.2 mb 0.00 in0.0 mm 0.00 in0.0 mm 0.00 in0.0 mm
02:25 AM 43.5°F6.4°C 33.8°F1.0°C 69% 3.7 mph NW6.0 kmh NW 5.6 mph9.0 kmh 29.95 in1014.2 mb 0.00 in0.0 mm 0.00 in0.0 mm 0.00 in0.0 mm
02:30 AM 43.3°F6.3°C 33.8°F1.0°C 69% 3.3 mph NW5.3 kmh NW 5.6 mph9.0 kmh 29.95 in1014.2 mb 0.00 in0.0 mm 0.00 in0.0 mm 0.00 in0.0 mm
02:35 AM 43.3°F6.3°C 33.8°F1.0°C 69% 3.7 mph NW6.0 kmh NW 5.8 mph9.3 kmh 29.95 in1014.2 mb 0.00 in0.0 mm 0.00 in0.0 mm 0.00 in0.0 mm
02:40 AM 43.3°F6.3°C 33.8°F1.0°C 69% 4.3 mph NW6.9 kmh NW 5.8 mph9.3 kmh 29.95 in1014.2 mb 0.00 in0.0 mm 0.00 in0.0 mm 0.00 in0.0 mm
02:45 AM 43.2°F6.2°C 33.8°F1.0°C 69% 4.5 mph NW7.2 kmh NW 7.6 mph12.2 kmh 29.95 in1014.2 mb 0.00 in0.0 mm 0.00 in0.0 mm 0.00 in0.0 mm
02:50 AM 43.0°F6.1°C 33.8°F1.0°C 69% 4.2 mph NW6.8 kmh NW 7.6 mph12.2 kmh 29.95 in1014.2 mb 0.00 in0.0 mm 0.00 in0.0 mm 0.00 in0.0 mm
02:55 AM 43.0°F6.1°C 33.8°F1.0°C 69% 3.5 mph NW5.6 kmh NW 4.9 mph7.9 kmh 29.95 in1014.2 mb 0.00 in0.0 mm 0.00 in0.0 mm 0.00 in0.0 mm
03:00 AM 43.0°F6.1°C 33.8°F1.0°C 69% 4.3 mph NW6.9 kmh NW 9.8 mph15.8 kmh 29.95 in1014.2 mb 0.00 in0.0 mm 0.00 in0.0 mm 0.00 in0.0 mm
03:05 AM 42.8°F6.0°C 33.8°F1.0°C 69% 5.1 mph NW8.2 kmh NW 9.8 mph15.8 kmh 29.95 in1014.2 mb 0.00 in0.0 mm 0.00 in0.0 mm 0.00 in0.0 mm
03:10 AM 42.6°F5.9°C 33.8°F1.0°C 69% 4.9 mph NW7.9 kmh NW 8.1 mph13.0 kmh 29.95 in1014.2 mb 0.00 in0.0 mm 0.00 in0.0 mm 0.00 in0.0 mm
03:15 AM 42.4°F5.8°C 33.8°F1.0°C 69% 3.8 mph NW6.1 kmh NW 6.0 mph9.7 kmh 29.95 in1014.2 mb 0.00 in0.0 mm 0.00 in0.0 mm 0.00 in0.0 mm
03:20 AM 42.3°F5.7°C 33.8°F1.0°C 70% 2.8 mph WNW4.5 kmh WNW 5.8 mph9.3 kmh 29.95 in1014.2 mb 0.00 in0.0 mm 0.00 in0.0 mm 0.00 in0.0 mm
03:25 AM 42.3°F5.7°C 33.8°F1.0°C 69% 2.6 mph WNW4.2 kmh WNW 3.8 mph6.1 kmh 29.95 in1014.2 mb 0.00 in0.0 mm 0.00 in0.0 mm 0.00 in0.0 mm
03:30 AM 42.1°F5.6°C 33.8°F1.0°C 69% 2.3 mph W3.7 kmh W 3.4 mph5.5 kmh 29.95 in1014.2 mb 0.00 in0.0 mm 0.00 in0.0 mm 0.00 in0.0 mm
03:35 AM 41.9°F5.5°C 33.8°F1.0°C 70% 1.7 mph WNW2.7 kmh WNW 3.1 mph5.0 kmh 29.98 in1015.2 mb 0.00 in0.0 mm 0.00 in0.0 mm 0.00 in0.0 mm
03:40 AM 41.7°F5.4°C 33.8°F1.0°C 70% 1.9 mph WNW3.1 kmh WNW 2.9 mph4.7 kmh 29.98 in1015.2 mb 0.00 in0.0 mm 0.00 in0.0 mm 0.00 in0.0 mm
03:45 AM 41.7°F5.4°C 32.0°F0.0°C 69% 2.4 mph WSW3.9 kmh WSW 3.1 mph5.0 kmh 29.98 in1015.2 mb 0.00 in0.0 mm 0.00 in0.0 mm 0.00 in0.0 mm
03:50 AM 41.5°F5.3°C 33.8°F1.0°C 70% 2.4 mph WSW3.9 kmh WSW 3.4 mph5.5 kmh 29.98 in1015.2 mb 0.00 in0.0 mm 0.00 in0.0 mm 0.00 in0.0 mm
03:55 AM 41.4°F5.2°C 32.0°F0.0°C 69% 2.7 mph WSW4.3 kmh WSW 3.6 mph5.8 kmh 29.98 in1015.2 mb 0.00 in0.0 mm 0.00 in0.0 mm 0.00 in0.0 mm
04:00 AM 41.0°F5.0°C 32.0°F0.0°C 69% 2.7 mph WSW4.3 kmh WSW 3.6 mph5.8 kmh 29.98 in1015.2 mb 0.00 in0.0 mm 0.00 in0.0 mm 0.00 in0.0 mm
04:05 AM 40.8°F4.9°C 32.0°F0.0°C 70% 2.0 mph WSW3.2 kmh WSW 3.1 mph5.0 kmh 29.98 in1015.2 mb 0.00 in0.0 mm 0.00 in0.0 mm 0.00 in0.0 mm
04:10 AM 40.6°F4.8°C 32.0°F0.0°C 70% 1.7 mph WSW2.7 kmh WSW 2.7 mph4.3 kmh 29.98 in1015.2 mb 0.00 in0.0 mm 0.00 in0.0 mm 0.00 in0.0 mm
04:15 AM 40.5°F4.7°C 32.0°F0.0°C 70% 1.6 mph WSW2.6 kmh WSW 2.7 mph4.3 kmh 29.98 in1015.2 mb 0.00 in0.0 mm 0.00 in0.0 mm 0.00 in0.0 mm
04:20 AM 40.5°F4.7°C 32.0°F0.0°C 70% 1.6 mph WSW2.6 kmh WSW 2.7 mph4.3 kmh 29.98 in1015.2 mb 0.00 in0.0 mm 0.00 in0.0 mm 0.00 in0.0 mm
04:25 AM 40.5°F4.7°C 32.0°F0.0°C 70% 1.7 mph WSW2.7 kmh WSW 2.7 mph4.3 kmh 29.98 in1015.2 mb 0.00 in0.0 mm 0.00 in0.0 mm 0.00 in0.0 mm
04:30 AM 40.3°F4.6°C 32.0°F0.0°C 70% 1.9 mph WSW3.1 kmh WSW 3.8 mph6.1 kmh 29.98 in1015.2 mb 0.00 in0.0 mm 0.00 in0.0 mm 0.00 in0.0 mm
04:35 AM 40.3°F4.6°C 32.0°F0.0°C 70% 2.1 mph WSW3.4 kmh WSW 3.8 mph6.1 kmh 29.98 in1015.2 mb 0.00 in0.0 mm 0.00 in0.0 mm 0.00 in0.0 mm
04:40 AM 40.5°F4.7°C 30.2°F-1.0°C 69% 2.6 mph WSW4.2 kmh WSW 3.8 mph6.1 kmh 29.98 in1015.2 mb 0.00 in0.0 mm 0.00 in0.0 mm 0.00 in0.0 mm
04:45 AM 40.3°F4.6°C 30.2°F-1.0°C 69% 3.3 mph WSW5.3 kmh WSW 5.6 mph9.0 kmh 29.98 in1015.2 mb 0.00 in0.0 mm 0.00 in0.0 mm 0.00 in0.0 mm
04:50 AM 40.3°F4.6°C 30.2°F-1.0°C 69% 3.2 mph WSW5.1 kmh WSW 5.6 mph9.0 kmh 29.98 in1015.2 mb 0.00 in0.0 mm 0.00 in0.0 mm 0.00 in0.0 mm
04:55 AM 40.1°F4.5°C 32.0°F0.0°C 70% 3.2 mph WSW5.1 kmh WSW 5.6 mph9.0 kmh 29.98 in1015.2 mb 0.00 in0.0 mm 0.00 in0.0 mm 0.00 in0.0 mm
05:00 AM 40.1°F4.5°C 32.0°F0.0°C 70% 3.2 mph WSW5.1 kmh WSW 4.5 mph7.2 kmh 29.98 in1015.2 mb 0.00 in0.0 mm 0.00 in0.0 mm 0.00 in0.0 mm
05:05 AM 40.1°F4.5°C 32.0°F0.0°C 70% 3.0 mph W4.8 kmh W 4.7 mph7.6 kmh 30.01 in1016.3 mb 0.00 in0.0 mm 0.00 in0.0 mm 0.00 in0.0 mm
05:10 AM 40.1°F4.5°C 32.0°F0.0°C 70% 2.8 mph WSW4.5 kmh WSW 4.7 mph7.6 kmh 30.01 in1016.3 mb 0.00 in0.0 mm 0.00 in0.0 mm 0.00 in0.0 mm
05:15 AM 40.1°F4.5°C 32.0°F0.0°C 70% 2.8 mph WSW4.5 kmh WSW 4.0 mph6.4 kmh 30.01 in1016.3 mb 0.00 in0.0 mm 0.00 in0.0 mm 0.00 in0.0 mm
05:20 AM 39.9°F4.4°C 30.2°F-1.0°C 70% 2.5 mph W4.0 kmh W 4.0 mph6.4 kmh 30.01 in1016.3 mb 0.00 in0.0 mm 0.00 in0.0 mm 0.00 in0.0 mm
05:25 AM 39.9°F4.4°C 30.2°F-1.0°C 70% 2.5 mph WSW4.0 kmh WSW 3.1 mph5.0 kmh 30.01 in1016.3 mb 0.00 in0.0 mm 0.00 in0.0 mm 0.00 in0.0 mm
05:30 AM 39.9°F4.4°C 32.0°F0.0°C 71% 2.6 mph SW4.2 kmh SW 4.9 mph7.9 kmh 30.01 in1016.3 mb 0.00 in0.0 mm 0.00 in0.0 mm 0.00 in0.0 mm
05:35 AM 39.6°F4.2°C 32.0°F0.0°C 71% 2.6 mph WSW4.2 kmh WSW 4.9 mph7.9 kmh 30.01 in1016.3 mb 0.00 in0.0 mm 0.00 in0.0 mm 0.00 in0.0 mm
05:40 AM 39.4°F4.1°C 30.2°F-1.0°C 71% 2.4 mph W3.9 kmh W 4.0 mph6.4 kmh 30.01 in1016.3 mb 0.00 in0.0 mm 0.00 in0.0 mm 0.00 in0.0 mm
05:45 AM 39.4°F4.1°C 30.2°F-1.0°C 71% 2.4 mph WSW3.9 kmh WSW 4.0 mph6.4 kmh 30.01 in1016.3 mb 0.00 in0.0 mm 0.00 in0.0 mm 0.00 in0.0 mm
05:50 AM 39.2°F4.0°C 30.2°F-1.0°C 71% 2.0 mph WSW3.2 kmh WSW 3.1 mph5.0 kmh 30.01 in1016.3 mb 0.00 in0.0 mm 0.00 in0.0 mm 0.00 in0.0 mm
05:55 AM 39.0°F3.9°C 30.2°F-1.0°C 71% 2.0 mph WSW3.2 kmh WSW 3.4 mph5.5 kmh 30.01 in1016.3 mb 0.00 in0.0 mm 0.00 in0.0 mm 0.00 in0.0 mm
06:00 AM 39.0°F3.9°C 30.2°F-1.0°C 71% 2.5 mph WSW4.0 kmh WSW 3.4 mph5.5 kmh 30.01 in1016.3 mb 0.00 in0.0 mm 0.00 in0.0 mm 0.00 in0.0 mm
06:05 AM 38.8°F3.8°C 30.2°F-1.0°C 72% 2.4 mph W3.9 kmh W 3.1 mph5.0 kmh 30.01 in1016.3 mb 0.00 in0.0 mm 0.00 in0.0 mm 0.00 in0.0 mm
06:10 AM 38.8°F3.8°C 30.2°F-1.0°C 72% 2.0 mph W3.2 kmh W 3.1 mph5.0 kmh 30.01 in1016.3 mb 0.00 in0.0 mm 0.00 in0.0 mm 0.00 in0.0 mm
06:15 AM 38.8°F3.8°C 30.2°F-1.0°C 72% 2.1 mph W3.4 kmh W 3.6 mph5.8 kmh 30.01 in1016.3 mb 0.00 in0.0 mm 0.00 in0.0 mm 0.00 in0.0 mm
06:20 AM 38.8°F3.8°C 30.2°F-1.0°C 71% 2.5 mph W4.0 kmh W 4.0 mph6.4 kmh 30.01 in1016.3 mb 0.00 in0.0 mm 0.00 in0.0 mm 0.00 in0.0 mm
06:25 AM 38.8°F3.8°C 30.2°F-1.0°C 72% 3.0 mph WSW4.8 kmh WSW 4.0 mph6.4 kmh 30.01 in1016.3 mb 0.00 in0.0 mm 0.00 in0.0 mm 0.00 in0.0 mm
06:30 AM 38.8°F3.8°C 30.2°F-1.0°C 72% 2.7 mph W4.3 kmh W 4.3 mph6.9 kmh 30.01 in1016.3 mb 0.00 in0.0 mm 0.00 in0.0 mm 0.00 in0.0 mm
06:35 AM 38.7°F3.7°C 30.2°F-1.0°C 72% 2.3 mph NW3.7 kmh NW 4.3 mph6.9 kmh 30.01 in1016.3 mb 0.00 in0.0 mm 0.00 in0.0 mm 0.00 in0.0 mm
06:40 AM 38.7°F3.7°C 30.2°F-1.0°C 72% 2.8 mph WNW4.5 kmh WNW 5.6 mph9.0 kmh 30.01 in1016.3 mb 0.00 in0.0 mm 0.00 in0.0 mm 0.00 in0.0 mm
06:45 AM 38.8°F3.8°C 30.2°F-1.0°C 72% 2.3 mph W3.7 kmh W 5.6 mph9.0 kmh 30.01 in1016.3 mb 0.00 in0.0 mm 0.00 in0.0 mm 0.00 in0.0 mm
06:50 AM 38.8°F3.8°C 30.2°F-1.0°C 72% 1.8 mph W2.9 kmh W 4.9 mph7.9 kmh 30.04 in1017.3 mb 0.00 in0.0 mm 0.00 in0.0 mm 0.00 in0.0 mm
06:55 AM 39.0°F3.9°C 32.0°F0.0°C 72% 2.2 mph W3.5 kmh W 4.9 mph7.9 kmh 30.04 in1017.3 mb 0.00 in0.0 mm 0.00 in0.0 mm 0.00 in0.0 mm
07:00 AM 39.2°F4.0°C 32.0°F0.0°C 72% 2.2 mph WNW3.5 kmh WNW 6.0 mph9.7 kmh 30.04 in1017.3 mb 0.00 in0.0 mm 0.00 in0.0 mm 0.00 in0.0 mm
07:05 AM 39.6°F4.2°C 32.0°F0.0°C 72% 2.9 mph WNW4.7 kmh WNW 6.0 mph9.7 kmh 30.04 in1017.3 mb 0.00 in0.0 mm 0.00 in0.0 mm 0.00 in0.0 mm
07:10 AM 40.1°F4.5°C 32.0°F0.0°C 72% 3.1 mph WNW5.0 kmh WNW 5.4 mph8.7 kmh 30.04 in1017.3 mb 0.00 in0.0 mm 0.00 in0.0 mm 0.00 in0.0 mm
07:15 AM 40.3°F4.6°C 32.0°F0.0°C 72% 2.8 mph NW4.5 kmh NW 5.4 mph8.7 kmh 30.04 in1017.3 mb 0.00 in0.0 mm 0.00 in0.0 mm 0.00 in0.0 mm
07:20 AM 40.3°F4.6°C 32.0°F0.0°C 71% 2.9 mph NW4.7 kmh NW 4.9 mph7.9 kmh 30.04 in1017.3 mb 0.00 in0.0 mm 0.00 in0.0 mm 0.00 in0.0 mm
07:25 AM 40.5°F4.7°C 32.0°F0.0°C 71% 2.8 mph W4.5 kmh W 3.8 mph6.1 kmh 30.04 in1017.3 mb 0.00 in0.0 mm 0.00 in0.0 mm 0.00 in0.0 mm
07:30 AM 40.6°F4.8°C 32.0°F0.0°C 71% 2.6 mph WNW4.2 kmh WNW 4.9 mph7.9 kmh 30.04 in1017.3 mb 0.00 in0.0 mm 0.00 in0.0 mm 0.00 in0.0 mm
07:35 AM 40.6°F4.8°C 32.0°F0.0°C 71% 2.5 mph WNW4.0 kmh WNW 4.9 mph7.9 kmh 30.04 in1017.3 mb 0.00 in0.0 mm 0.00 in0.0 mm 0.00 in0.0 mm
07:40 AM 40.6°F4.8°C 32.0°F0.0°C 71% 2.3 mph WNW3.7 kmh WNW 3.4 mph5.5 kmh 30.04 in1017.3 mb 0.00 in0.0 mm 0.00 in0.0 mm 0.00 in0.0 mm
07:45 AM 41.0°F5.0°C 33.8°F1.0°C 71% 2.2 mph WNW3.5 kmh WNW 3.4 mph5.5 kmh 30.04 in1017.3 mb 0.00 in0.0 mm 0.00 in0.0 mm 0.00 in0.0 mm
07:50 AM 41.4°F5.2°C 32.0°F0.0°C 70% 2.4 mph W3.9 kmh W 3.8 mph6.1 kmh 30.04 in1017.3 mb 0.00 in0.0 mm 0.00 in0.0 mm 0.00 in0.0 mm
07:55 AM 41.4°F5.2°C 32.0°F0.0°C 70% 2.5 mph WNW4.0 kmh WNW 3.8 mph6.1 kmh 30.04 in1017.3 mb 0.00 in0.0 mm 0.00 in0.0 mm 0.00 in0.0 mm
08:00 AM 41.5°F5.3°C 33.8°F1.0°C 70% 2.5 mph NW4.0 kmh NW 3.4 mph5.5 kmh 30.04 in1017.3 mb 0.00 in0.0 mm 0.00 in0.0 mm 0.00 in0.0 mm
08:05 AM 41.9°F5.5°C 33.8°F1.0°C 70% 2.4 mph NW3.9 kmh NW 3.6 mph5.8 kmh 30.04 in1017.3 mb 0.00 in0.0 mm 0.00 in0.0 mm 0.00 in0.0 mm
08:10 AM 42.1°F5.6°C 33.8°F1.0°C 70% 2.5 mph NW4.0 kmh NW 3.6 mph5.8 kmh 30.04 in1017.3 mb 0.00 in0.0 mm 0.00 in0.0 mm 0.00 in0.0 mm
08:15 AM 42.4°F5.8°C 33.8°F1.0°C 70% 2.4 mph NW3.9 kmh NW 3.6 mph5.8 kmh 30.04 in1017.3 mb 0.00 in0.0 mm 0.00 in0.0 mm 0.00 in0.0 mm
08:20 AM 43.0°F6.1°C 33.8°F1.0°C 69% 3.0 mph NW4.8 kmh NW 6.0 mph9.7 kmh 30.04 in1017.3 mb 0.00 in0.0 mm 0.00 in0.0 mm 0.00 in0.0 mm
08:25 AM 43.3°F6.3°C 33.8°F1.0°C 69% 3.4 mph NW5.5 kmh NW 8.1 mph13.0 kmh 30.04 in1017.3 mb 0.00 in0.0 mm 0.00 in0.0 mm 0.00 in0.0 mm
08:30 AM 44.1°F6.7°C 33.8°F1.0°C 68% 3.9 mph NW6.3 kmh NW 8.1 mph13.0 kmh 30.04 in1017.3 mb 0.00 in0.0 mm 0.00 in0.0 mm 0.00 in0.0 mm
08:35 AM 44.6°F7.0°C 33.8°F1.0°C 67% 5.5 mph NW8.9 kmh NW 7.4 mph11.9 kmh 30.04 in1017.3 mb 0.00 in0.0 mm 0.00 in0.0 mm 0.00 in0.0 mm
08:40 AM 45.9°F7.7°C 35.6°F2.0°C 67% 4.9 mph NW7.9 kmh NW 7.4 mph11.9 kmh 30.04 in1017.3 mb 0.00 in0.0 mm 0.00 in0.0 mm 0.00 in0.0 mm
08:45 AM 46.9°F8.3°C 37.4°F3.0°C 66% 3.8 mph NW6.1 kmh NW 6.0 mph9.7 kmh 30.04 in1017.3 mb 0.00 in0.0 mm 0.00 in0.0 mm 0.00 in0.0 mm
08:50 AM 48.2°F9.0°C 37.4°F3.0°C 66% 3.9 mph NW6.3 kmh NW 6.0 mph9.7 kmh 30.04 in1017.3 mb 0.00 in0.0 mm 0.00 in0.0 mm 0.00 in0.0 mm
08:55 AM 49.1°F9.5°C 37.4°F3.0°C 64% 3.1 mph NW5.0 kmh NW 5.6 mph9.0 kmh 30.04 in1017.3 mb 0.00 in0.0 mm 0.00 in0.0 mm 0.00 in0.0 mm
09:00 AM 50.2°F10.1°C 39.2°F4.0°C 64% 2.8 mph NW4.5 kmh NW 5.6 mph9.0 kmh 30.04 in1017.3 mb 0.00 in0.0 mm 0.00 in0.0 mm 0.00 in0.0 mm
09:05 AM 50.5°F10.3°C 39.2°F4.0°C 63% 3.4 mph NW5.5 kmh NW 6.3 mph10.1 kmh 30.04 in1017.3 mb 0.00 in0.0 mm 0.00 in0.0 mm 0.00 in0.0 mm
09:10 AM 50.9°F10.5°C 39.2°F4.0°C 62% 4.4 mph WNW7.1 kmh WNW 6.3 mph10.1 kmh 30.04 in1017.3 mb 0.00 in0.0 mm 0.00 in0.0 mm 0.00 in0.0 mm
09:15 AM 50.5°F10.3°C 37.4°F3.0°C 62% 4.1 mph WNW6.6 kmh WNW 6.3 mph10.1 kmh 30.04 in1017.3 mb 0.00 in0.0 mm 0.00 in0.0 mm 0.00 in0.0 mm
09:20 AM 49.3°F9.6°C 37.4°F3.0°C 62% 3.5 mph NW5.6 kmh NW 7.2 mph11.6 kmh 30.07 in1018.3 mb 0.00 in0.0 mm 0.00 in0.0 mm 0.00 in0.0 mm
09:25 AM 48.6°F9.2°C 37.4°F3.0°C 62% 4.0 mph WNW6.4 kmh WNW 7.2 mph11.6 kmh 30.07 in1018.3 mb 0.00 in0.0 mm 0.00 in0.0 mm 0.00 in0.0 mm
09:30 AM 48.4°F9.1°C 35.6°F2.0°C 62% 5.2 mph NW8.4 kmh NW 7.8 mph12.6 kmh 30.07 in1018.3 mb 0.00 in0.0 mm 0.00 in0.0 mm 0.00 in0.0 mm
09:35 AM 48.4°F9.1°C 35.6°F2.0°C 62% 5.6 mph NNW9.0 kmh NNW 7.8 mph12.6 kmh 30.04 in1017.3 mb 0.00 in0.0 mm 0.00 in0.0 mm 0.00 in0.0 mm
09:40 AM 48.7°F9.3°C 35.6°F2.0°C 61% 5.0 mph NW8.0 kmh NW 7.8 mph12.6 kmh 30.04 in1017.3 mb 0.00 in0.0 mm 0.00 in0.0 mm 0.00 in0.0 mm
09:45 AM 49.6°F9.8°C 37.4°F3.0°C 61% 4.2 mph NW6.8 kmh NW 6.3 mph10.1 kmh 30.04 in1017.3 mb 0.00 in0.0 mm 0.00 in0.0 mm 0.00 in0.0 mm
09:50 AM 50.9°F10.5°C 37.4°F3.0°C 60% 3.9 mph NNW6.3 kmh NNW 7.6 mph12.2 kmh 30.07 in1018.3 mb 0.00 in0.0 mm 0.00 in0.0 mm 0.00 in0.0 mm
09:55 AM 52.9°F11.6°C 39.2°F4.0°C 60% 3.5 mph NW5.6 kmh NW 7.6 mph12.2 kmh 30.07 in1018.3 mb 0.00 in0.0 mm 0.00 in0.0 mm 0.00 in0.0 mm
10:00 AM 53.8°F12.1°C 39.2°F4.0°C 58% 4.1 mph NW6.6 kmh NW 10.7 mph17.2 kmh 30.07 in1018.3 mb 0.00 in0.0 mm 0.00 in0.0 mm 0.00 in0.0 mm
10:05 AM 54.1°F12.3°C 39.2°F4.0°C 57% 4.9 mph NW7.9 kmh NW 10.7 mph17.2 kmh 30.04 in1017.3 mb 0.00 in0.0 mm 0.00 in0.0 mm 0.00 in0.0 mm
10:10 AM 55.0°F12.8°C 41.0°F5.0°C 56% 4.8 mph WNW7.7 kmh WNW 8.5 mph13.7 kmh 30.04 in1017.3 mb 0.00 in0.0 mm 0.00 in0.0 mm 0.00 in0.0 mm
10:15 AM 55.9°F13.3°C 41.0°F5.0°C 56% 4.1 mph NW6.6 kmh NW 8.1 mph13.0 kmh 30.04 in1017.3 mb 0.00 in0.0 mm 0.00 in0.0 mm 0.00 in0.0 mm
10:20 AM 55.6°F13.1°C 41.0°F5.0°C 56% 4.2 mph NNW6.8 kmh NNW 7.4 mph11.9 kmh 30.04 in1017.3 mb 0.00 in0.0 mm 0.00 in0.0 mm 0.00 in0.0 mm
10:25 AM 56.1°F13.4°C 41.0°F5.0°C 56% 3.8 mph NNW6.1 kmh NNW 6.3 mph10.1 kmh 30.04 in1017.3 mb 0.00 in0.0 mm 0.00 in0.0 mm 0.00 in0.0 mm
10:30 AM 56.7°F13.7°C 41.0°F5.0°C 54% 3.8 mph NW6.1 kmh NW 7.4 mph11.9 kmh 30.04 in1017.3 mb 0.00 in0.0 mm 0.00 in0.0 mm 0.00 in0.0 mm
10:35 AM 55.8°F13.2°C 41.0°F5.0°C 54% 4.4 mph NW7.1 kmh NW 7.4 mph11.9 kmh 30.04 in1017.3 mb 0.00 in0.0 mm 0.00 in0.0 mm 0.00 in0.0 mm
10:40 AM 54.1°F12.3°C 39.2°F4.0°C 54% 4.2 mph W6.8 kmh W 7.2 mph11.6 kmh 30.04 in1017.3 mb 0.00 in0.0 mm 0.00 in0.0 mm 0.00 in0.0 mm
10:45 AM 54.1°F12.3°C 39.2°F4.0°C 54% 3.3 mph NW5.3 kmh NW 7.2 mph11.6 kmh 30.04 in1017.3 mb 0.00 in0.0 mm 0.00 in0.0 mm 0.00 in0.0 mm
10:50 AM 56.3°F13.5°C 41.0°F5.0°C 53% 4.0 mph N6.4 kmh N 8.1 mph13.0 kmh 30.04 in1017.3 mb 0.00 in0.0 mm 0.00 in0.0 mm 0.00 in0.0 mm
10:55 AM 56.5°F13.6°C 41.0°F5.0°C 53% 5.4 mph NNW8.7 kmh NNW 8.1 mph13.0 kmh 30.04 in1017.3 mb 0.00 in0.0 mm 0.00 in0.0 mm 0.00 in0.0 mm
11:00 AM 55.0°F12.8°C 39.2°F4.0°C 52% 4.9 mph NW7.9 kmh NW 7.8 mph12.6 kmh 30.04 in1017.3 mb 0.00 in0.0 mm 0.00 in0.0 mm 0.00 in0.0 mm
11:05 AM 55.0°F12.8°C 39.2°F4.0°C 53% 4.3 mph NW6.9 kmh NW 8.5 mph13.7 kmh 30.04 in1017.3 mb 0.00 in0.0 mm 0.00 in0.0 mm 0.00 in0.0 mm
11:10 AM 54.7°F12.6°C 37.4°F3.0°C 52% 4.0 mph NW6.4 kmh NW 8.5 mph13.7 kmh 30.04 in1017.3 mb 0.00 in0.0 mm 0.00 in0.0 mm 0.00 in0.0 mm
11:15 AM 55.0°F12.8°C 39.2°F4.0°C 53% 3.8 mph W6.1 kmh W 6.3 mph10.1 kmh 30.04 in1017.3 mb 0.00 in0.0 mm 0.00 in0.0 mm 0.00 in0.0 mm
11:20 AM 56.7°F13.7°C 39.2°F4.0°C 52% 4.7 mph W7.6 kmh W 7.8 mph12.6 kmh 30.04 in1017.3 mb 0.00 in0.0 mm 0.00 in0.0 mm 0.00 in0.0 mm
11:25 AM 57.6°F14.2°C 41.0°F5.0°C 52% 7.3 mph NW11.7 kmh NW 11.0 mph17.7 kmh 30.04 in1017.3 mb 0.00 in0.0 mm 0.00 in0.0 mm 0.00 in0.0 mm
11:30 AM 57.7°F14.3°C 41.0°F5.0°C 51% 6.3 mph NW10.1 kmh NW 11.0 mph17.7 kmh 30.04 in1017.3 mb 0.00 in0.0 mm 0.00 in0.0 mm 0.00 in0.0 mm
11:35 AM 57.9°F14.4°C 41.0°F5.0°C 51% 4.1 mph WNW6.6 kmh WNW 6.7 mph10.8 kmh 30.04 in1017.3 mb 0.00 in0.0 mm 0.00 in0.0 mm 0.00 in0.0 mm
11:40 AM 58.5°F14.7°C 41.0°F5.0°C 51% 4.8 mph W7.7 kmh W 8.1 mph13.0 kmh 30.04 in1017.3 mb 0.00 in0.0 mm 0.00 in0.0 mm 0.00 in0.0 mm
11:45 AM 58.1°F14.5°C 41.0°F5.0°C 50% 6.5 mph WSW10.5 kmh WSW 12.1 mph19.5 kmh 30.04 in1017.3 mb 0.00 in0.0 mm 0.00 in0.0 mm 0.00 in0.0 mm
11:50 AM 58.8°F14.9°C 41.0°F5.0°C 50% 6.1 mph WSW9.8 kmh WSW 12.1 mph19.5 kmh 30.04 in1017.3 mb 0.00 in0.0 mm 0.00 in0.0 mm 0.00 in0.0 mm
11:55 AM 57.7°F14.3°C 39.2°F4.0°C 50% 3.7 mph WNW6.0 kmh WNW 7.4 mph11.9 kmh 30.04 in1017.3 mb 0.00 in0.0 mm 0.00 in0.0 mm 0.00 in0.0 mm
12:00 PM 58.6°F14.8°C 41.0°F5.0°C 50% 2.4 mph NW3.9 kmh NW 5.6 mph9.0 kmh 30.04 in1017.3 mb 0.00 in0.0 mm 0.00 in0.0 mm 0.00 in0.0 mm
12:05 PM 58.5°F14.7°C 41.0°F5.0°C 51% 2.9 mph WSW4.7 kmh WSW 7.4 mph11.9 kmh 30.04 in1017.3 mb 0.00 in0.0 mm 0.00 in0.0 mm 0.00 in0.0 mm
12:10 PM 59.0°F15.0°C 41.0°F5.0°C 50% 4.6 mph WSW7.4 kmh WSW 7.4 mph11.9 kmh 30.04 in1017.3 mb 0.00 in0.0 mm 0.00 in0.0 mm 0.00 in0.0 mm
12:15 PM 58.5°F14.7°C 41.0°F5.0°C 50% 5.0 mph WSW8.0 kmh WSW 7.4 mph11.9 kmh 30.04 in1017.3 mb 0.00 in0.0 mm 0.00 in0.0 mm 0.00 in0.0 mm
12:20 PM 57.9°F14.4°C 39.2°F4.0°C 50% 4.4 mph W7.1 kmh W 6.5 mph10.5 kmh 30.04 in1017.3 mb 0.00 in0.0 mm 0.00 in0.0 mm 0.00 in0.0 mm
12:25 PM 57.6°F14.2°C 39.2°F4.0°C 50% 4.6 mph WSW7.4 kmh WSW 6.3 mph10.1 kmh 30.04 in1017.3 mb 0.00 in0.0 mm 0.00 in0.0 mm 0.00 in0.0 mm
12:30 PM 57.0°F13.9°C 39.2°F4.0°C 50% 4.3 mph SW6.9 kmh SW 6.3 mph10.1 kmh 30.04 in1017.3 mb 0.00 in0.0 mm 0.00 in0.0 mm 0.00 in0.0 mm
12:35 PM 56.8°F13.8°C 39.2°F4.0°C 51% 3.4 mph WSW5.5 kmh WSW 5.4 mph8.7 kmh 30.04 in1017.3 mb 0.00 in0.0 mm 0.00 in0.0 mm 0.00 in0.0 mm
12:40 PM 56.7°F13.7°C 39.2°F4.0°C 50% 2.9 mph WNW4.7 kmh WNW 5.6 mph9.0 kmh 30.04 in1017.3 mb 0.00 in0.0 mm 0.00 in0.0 mm 0.00 in0.0 mm
12:45 PM 56.7°F13.7°C 39.2°F4.0°C 50% 3.1 mph W5.0 kmh W 5.6 mph9.0 kmh 30.04 in1017.3 mb 0.00 in0.0 mm 0.00 in0.0 mm 0.00 in0.0 mm
12:50 PM 56.7°F13.7°C 39.2°F4.0°C 50% 3.6 mph WNW5.8 kmh WNW 5.6 mph9.0 kmh 30.04 in1017.3 mb 0.00 in0.0 mm 0.00 in0.0 mm 0.00 in0.0 mm
12:55 PM 56.7°F13.7°C 39.2°F4.0°C 51% 3.9 mph NW6.3 kmh NW 6.3 mph10.1 kmh 30.04 in1017.3 mb 0.00 in0.0 mm 0.00 in0.0 mm 0.00 in0.0 mm
01:00 PM 57.0°F13.9°C 39.2°F4.0°C 51% 4.3 mph NW6.9 kmh NW 7.6 mph12.2 kmh 30.04 in1017.3 mb 0.00 in0.0 mm 0.00 in0.0 mm 0.00 in0.0 mm
01:05 PM 57.2°F14.0°C 39.2°F4.0°C 51% 4.1 mph NW6.6 kmh NW 7.6 mph12.2 kmh 30.04 in1017.3 mb 0.00 in0.0 mm 0.00 in0.0 mm 0.00 in0.0 mm
01:10 PM 57.0°F13.9°C 39.2°F4.0°C 51% 3.3 mph WNW5.3 kmh WNW 5.4 mph8.7 kmh 30.04 in1017.3 mb 0.00 in0.0 mm 0.00 in0.0 mm 0.00 in0.0 mm
01:15 PM 56.8°F13.8°C 39.2°F4.0°C 51% 3.4 mph W5.5 kmh W 6.0 mph9.7 kmh 30.04 in1017.3 mb 0.00 in0.0 mm 0.00 in0.0 mm 0.00 in0.0 mm
01:20 PM 57.2°F14.0°C 39.2°F4.0°C 51% 3.5 mph WSW5.6 kmh WSW 6.0 mph9.7 kmh 30.01 in1016.3 mb 0.00 in0.0 mm 0.00 in0.0 mm 0.00 in0.0 mm
01:25 PM 56.3°F13.5°C 39.2°F4.0°C 51% 3.7 mph WSW6.0 kmh WSW 5.6 mph9.0 kmh 30.01 in1016.3 mb 0.00 in0.0 mm 0.00 in0.0 mm 0.00 in0.0 mm
01:30 PM 55.9°F13.3°C 39.2°F4.0°C 51% 4.1 mph WSW6.6 kmh WSW 5.6 mph9.0 kmh 30.01 in1016.3 mb 0.00 in0.0 mm 0.00 in0.0 mm 0.00 in0.0 mm
01:35 PM 55.8°F13.2°C 39.2°F4.0°C 51% 4.2 mph W6.8 kmh W 6.3 mph10.1 kmh 30.01 in1016.3 mb 0.00 in0.0 mm 0.00 in0.0 mm 0.00 in0.0 mm
01:40 PM 55.4°F13.0°C 37.4°F3.0°C 51% 4.5 mph WSW7.2 kmh WSW 6.3 mph10.1 kmh 30.01 in1016.3 mb 0.00 in0.0 mm 0.00 in0.0 mm 0.00 in0.0 mm
01:45 PM 55.2°F12.9°C 37.4°F3.0°C 51% 3.5 mph WSW5.6 kmh WSW 6.0 mph9.7 kmh 30.01 in1016.3 mb 0.00 in0.0 mm 0.00 in0.0 mm 0.00 in0.0 mm
01:50 PM 55.2°F12.9°C 37.4°F3.0°C 51% 4.1 mph W6.6 kmh W 8.1 mph13.0 kmh 30.01 in1016.3 mb 0.00 in0.0 mm 0.00 in0.0 mm 0.00 in0.0 mm
01:55 PM 55.2°F12.9°C 37.4°F3.0°C 51% 5.0 mph WSW8.0 kmh WSW 8.1 mph13.0 kmh 30.01 in1016.3 mb 0.00 in0.0 mm 0.00 in0.0 mm 0.00 in0.0 mm
02:00 PM 55.6°F13.1°C 37.4°F3.0°C 51% 3.9 mph WSW6.3 kmh WSW 6.0 mph9.7 kmh 30.01 in1016.3 mb 0.00 in0.0 mm 0.00 in0.0 mm 0.00 in0.0 mm
02:05 PM 55.6°F13.1°C 37.4°F3.0°C 51% 4.1 mph WSW6.6 kmh WSW 7.6 mph12.2 kmh 30.01 in1016.3 mb 0.00 in0.0 mm 0.00 in0.0 mm 0.00 in0.0 mm
02:10 PM 55.4°F13.0°C 37.4°F3.0°C 51% 4.2 mph WSW6.8 kmh WSW 7.6 mph12.2 kmh 30.01 in1016.3 mb 0.00 in0.0 mm 0.00 in0.0 mm 0.00 in0.0 mm
02:15 PM 55.0°F12.8°C 37.4°F3.0°C 51% 3.6 mph WSW5.8 kmh WSW 5.6 mph9.0 kmh 30.01 in1016.3 mb 0.00 in0.0 mm 0.00 in0.0 mm 0.00 in0.0 mm
02:20 PM 54.9°F12.7°C 37.4°F3.0°C 51% 3.8 mph WSW6.1 kmh WSW 8.5 mph13.7 kmh 30.01 in1016.3 mb 0.00 in0.0 mm 0.00 in0.0 mm 0.00 in0.0 mm
02:25 PM 54.9°F12.7°C 37.4°F3.0°C 51% 4.8 mph W7.7 kmh W 8.5 mph13.7 kmh 30.01 in1016.3 mb 0.00 in0.0 mm 0.00 in0.0 mm 0.00 in0.0 mm
02:30 PM 55.0°F12.8°C 37.4°F3.0°C 51% 4.6 mph W7.4 kmh W 6.5 mph10.5 kmh 30.01 in1016.3 mb 0.00 in0.0 mm 0.00 in0.0 mm 0.00 in0.0 mm
02:35 PM 55.2°F12.9°C 37.4°F3.0°C 51% 3.8 mph WNW6.1 kmh WNW 6.3 mph10.1 kmh 30.01 in1016.3 mb 0.00 in0.0 mm 0.00 in0.0 mm 0.00 in0.0 mm
02:40 PM 55.2°F12.9°C 37.4°F3.0°C 51% 3.5 mph W5.6 kmh W 6.3 mph10.1 kmh 30.01 in1016.3 mb 0.00 in0.0 mm 0.00 in0.0 mm 0.00 in0.0 mm
02:45 PM 55.0°F12.8°C 37.4°F3.0°C 51% 3.5 mph W5.6 kmh W 6.3 mph10.1 kmh 30.01 in1016.3 mb 0.00 in0.0 mm 0.00 in0.0 mm 0.00 in0.0 mm
02:50 PM 54.7°F12.6°C 37.4°F3.0°C 51% 4.0 mph WNW6.4 kmh WNW 7.8 mph12.6 kmh 30.01 in1016.3 mb 0.00 in0.0 mm 0.00 in0.0 mm 0.00 in0.0 mm
02:55 PM 54.7°F12.6°C 37.4°F3.0°C 51% 4.7 mph WNW7.6 kmh WNW 9.8 mph15.8 kmh 30.01 in1016.3 mb 0.00 in0.0 mm 0.00 in0.0 mm 0.00 in0.0 mm
03:00 PM 54.5°F12.5°C 37.4°F3.0°C 51% 3.9 mph WNW6.3 kmh WNW 9.8 mph15.8 kmh 30.01 in1016.3 mb 0.00 in0.0 mm 0.00 in0.0 mm 0.00 in0.0 mm
03:05 PM 54.5°F12.5°C 37.4°F3.0°C 51% 3.5 mph W5.6 kmh W 6.5 mph10.5 kmh 30.01 in1016.3 mb 0.00 in0.0 mm 0.00 in0.0 mm 0.00 in0.0 mm
03:10 PM 54.3°F12.4°C 37.4°F3.0°C 52% 3.5 mph W5.6 kmh W 6.5 mph10.5 kmh 30.01 in1016.3 mb 0.00 in0.0 mm 0.00 in0.0 mm 0.00 in0.0 mm
03:15 PM 54.5°F12.5°C 37.4°F3.0°C 52% 3.3 mph WSW5.3 kmh WSW 5.4 mph8.7 kmh 30.01 in1016.3 mb 0.00 in0.0 mm 0.00 in0.0 mm 0.00 in0.0 mm
03:20 PM 54.3°F12.4°C 37.4°F3.0°C 52% 3.7 mph WSW6.0 kmh WSW 6.5 mph10.5 kmh 29.98 in1015.2 mb 0.00 in0.0 mm 0.00 in0.0 mm 0.00 in0.0 mm
03:25 PM 54.3°F12.4°C 37.4°F3.0°C 52% 3.8 mph WSW6.1 kmh WSW 6.5 mph10.5 kmh 29.98 in1015.2 mb 0.00 in0.0 mm 0.00 in0.0 mm 0.00 in0.0 mm
03:30 PM 54.1°F12.3°C 37.4°F3.0°C 52% 3.3 mph W5.3 kmh W 6.3 mph10.1 kmh 29.98 in1015.2 mb 0.00 in0.0 mm 0.00 in0.0 mm 0.00 in0.0 mm
03:35 PM 54.1°F12.3°C 37.4°F3.0°C 52% 2.9 mph WSW4.7 kmh WSW 6.3 mph10.1 kmh 29.98 in1015.2 mb 0.00 in0.0 mm 0.00 in0.0 mm 0.00 in0.0 mm
03:40 PM 54.1°F12.3°C 37.4°F3.0°C 52% 2.9 mph WSW4.7 kmh WSW 4.0 mph6.4 kmh 29.98 in1015.2 mb 0.00 in0.0 mm 0.00 in0.0 mm 0.00 in0.0 mm
03:45 PM 54.3°F12.4°C 37.4°F3.0°C 53% 3.0 mph WSW4.8 kmh WSW 4.7 mph7.6 kmh 29.98 in1015.2 mb 0.00 in0.0 mm 0.00 in0.0 mm 0.00 in0.0 mm
03:50 PM 54.3°F12.4°C 37.4°F3.0°C 53% 2.5 mph W4.0 kmh W 4.7 mph7.6 kmh 29.98 in1015.2 mb 0.00 in0.0 mm 0.00 in0.0 mm 0.00 in0.0 mm
03:55 PM 54.1°F12.3°C 37.4°F3.0°C 53% 3.5 mph WSW5.6 kmh WSW 6.9 mph11.1 kmh 29.98 in1015.2 mb 0.00 in0.0 mm 0.00 in0.0 mm 0.00 in0.0 mm
04:00 PM 54.0°F12.2°C 37.4°F3.0°C 53% 4.5 mph WSW7.2 kmh WSW 7.4 mph11.9 kmh 29.98 in1015.2 mb 0.00 in0.0 mm 0.00 in0.0 mm 0.00 in0.0 mm
04:05 PM 54.0°F12.2°C 37.4°F3.0°C 53% 3.9 mph WSW6.3 kmh WSW 7.4 mph11.9 kmh 29.98 in1015.2 mb 0.00 in0.0 mm 0.00 in0.0 mm 0.00 in0.0 mm
04:10 PM 53.8°F12.1°C 37.4°F3.0°C 53% 3.5 mph WSW5.6 kmh WSW 5.6 mph9.0 kmh 29.98 in1015.2 mb 0.00 in0.0 mm 0.00 in0.0 mm 0.00 in0.0 mm
04:15 PM 54.0°F12.2°C 37.4°F3.0°C 53% 3.2 mph WSW5.1 kmh WSW 5.6 mph9.0 kmh 29.98 in1015.2 mb 0.00 in0.0 mm 0.00 in0.0 mm 0.00 in0.0 mm
04:20 PM 53.8°F12.1°C 37.4°F3.0°C 53% 2.8 mph SW4.5 kmh SW 3.8 mph6.1 kmh 29.98 in1015.2 mb 0.00 in0.0 mm 0.00 in0.0 mm 0.00 in0.0 mm
04:25 PM 53.6°F12.0°C 37.4°F3.0°C 53% 3.4 mph WSW5.5 kmh WSW 5.8 mph9.3 kmh 29.98 in1015.2 mb 0.00 in0.0 mm 0.00 in0.0 mm 0.00 in0.0 mm
04:30 PM 53.6°F12.0°C 37.4°F3.0°C 54% 3.1 mph WSW5.0 kmh WSW 5.8 mph9.3 kmh 29.98 in1015.2 mb 0.00 in0.0 mm 0.00 in0.0 mm 0.00 in0.0 mm
04:35 PM 53.6°F12.0°C 37.4°F3.0°C 54% 3.0 mph SW4.8 kmh SW 5.8 mph9.3 kmh 29.95 in1014.2 mb 0.00 in0.0 mm 0.00 in0.0 mm 0.00 in0.0 mm
04:40 PM 53.2°F11.8°C 37.4°F3.0°C 54% 4.0 mph SW6.4 kmh SW 6.3 mph10.1 kmh 29.95 in1014.2 mb 0.00 in0.0 mm 0.00 in0.0 mm 0.00 in0.0 mm
04:45 PM 53.2°F11.8°C 37.4°F3.0°C 55% 4.2 mph SW6.8 kmh SW 6.3 mph10.1 kmh 29.95 in1014.2 mb 0.00 in0.0 mm 0.00 in0.0 mm 0.00 in0.0 mm
04:50 PM 53.1°F11.7°C 37.4°F3.0°C 55% 4.1 mph WSW6.6 kmh WSW 6.5 mph10.5 kmh 29.95 in1014.2 mb 0.00 in0.0 mm 0.00 in0.0 mm 0.00 in0.0 mm
04:55 PM 52.9°F11.6°C 37.4°F3.0°C 56% 5.3 mph WSW8.5 kmh WSW 7.8 mph12.6 kmh 29.95 in1014.2 mb 0.00 in0.0 mm 0.00 in0.0 mm 0.00 in0.0 mm
05:00 PM 52.7°F11.5°C 37.4°F3.0°C 56% 6.4 mph SW10.3 kmh SW 10.5 mph16.9 kmh 29.95 in1014.2 mb 0.00 in0.0 mm 0.00 in0.0 mm 0.00 in0.0 mm
05:05 PM 52.5°F11.4°C 37.4°F3.0°C 57% 6.4 mph SW10.3 kmh SW 10.5 mph16.9 kmh 29.98 in1015.2 mb 0.00 in0.0 mm 0.00 in0.0 mm 0.00 in0.0 mm
05:10 PM 52.5°F11.4°C 37.4°F3.0°C 58% 5.0 mph WSW8.0 kmh WSW 7.8 mph12.6 kmh 29.98 in1015.2 mb 0.00 in0.0 mm 0.00 in0.0 mm 0.00 in0.0 mm
05:15 PM 52.3°F11.3°C 39.2°F4.0°C 59% 3.7 mph WSW6.0 kmh WSW 7.4 mph11.9 kmh 29.98 in1015.2 mb 0.00 in0.0 mm 0.00 in0.0 mm 0.00 in0.0 mm
05:20 PM 52.2°F11.2°C 39.2°F4.0°C 60% 3.7 mph WSW6.0 kmh WSW 7.4 mph11.9 kmh 29.95 in1014.2 mb 0.00 in0.0 mm 0.00 in0.0 mm 0.00 in0.0 mm
05:25 PM 51.8°F11.0°C 39.2°F4.0°C 61% 3.9 mph SW6.3 kmh SW 7.2 mph11.6 kmh 29.95 in1014.2 mb 0.00 in0.0 mm 0.00 in0.0 mm 0.00 in0.0 mm
05:30 PM 51.6°F10.9°C 39.2°F4.0°C 61% 4.2 mph SW6.8 kmh SW 7.2 mph11.6 kmh 29.95 in1014.2 mb 0.00 in0.0 mm 0.00 in0.0 mm 0.00 in0.0 mm
05:35 PM 51.4°F10.8°C 39.2°F4.0°C 62% 3.7 mph SW6.0 kmh SW 6.3 mph10.1 kmh 29.95 in1014.2 mb 0.00 in0.0 mm 0.00 in0.0 mm 0.00 in0.0 mm
05:40 PM 51.4°F10.8°C 39.2°F4.0°C 62% 3.4 mph WSW5.5 kmh WSW 6.0 mph9.7 kmh 29.95 in1014.2 mb 0.00 in0.0 mm 0.00 in0.0 mm 0.00 in0.0 mm
05:45 PM 51.3°F10.7°C 39.2°F4.0°C 63% 2.9 mph WSW4.7 kmh WSW 6.0 mph9.7 kmh 29.95 in1014.2 mb 0.00 in0.0 mm 0.00 in0.0 mm 0.00 in0.0 mm
05:50 PM 51.1°F10.6°C 39.2°F4.0°C 63% 2.5 mph WSW4.0 kmh WSW 5.6 mph9.0 kmh 29.95 in1014.2 mb 0.00 in0.0 mm 0.00 in0.0 mm 0.00 in0.0 mm
05:55 PM 50.9°F10.5°C 39.2°F4.0°C 63% 2.4 mph SW3.9 kmh SW 4.7 mph7.6 kmh 29.95 in1014.2 mb 0.00 in0.0 mm 0.00 in0.0 mm 0.00 in0.0 mm
06:00 PM 50.7°F10.4°C 39.2°F4.0°C 64% 2.2 mph WSW3.5 kmh WSW 4.0 mph6.4 kmh 29.95 in1014.2 mb 0.00 in0.0 mm 0.00 in0.0 mm 0.00 in0.0 mm
06:05 PM 50.7°F10.4°C 39.2°F4.0°C 64% 2.2 mph WSW3.5 kmh WSW 4.0 mph6.4 kmh 29.95 in1014.2 mb 0.00 in0.0 mm 0.00 in0.0 mm 0.00 in0.0 mm
06:10 PM 50.7°F10.4°C 39.2°F4.0°C 64% 1.8 mph WSW2.9 kmh WSW 3.8 mph6.1 kmh 29.95 in1014.2 mb 0.00 in0.0 mm 0.00 in0.0 mm 0.00 in0.0 mm
06:15 PM 50.5°F10.3°C 39.2°F4.0°C 64% 1.9 mph SW3.1 kmh SW 3.8 mph6.1 kmh 29.95 in1014.2 mb 0.00 in0.0 mm 0.00 in0.0 mm 0.00 in0.0 mm
06:20 PM 50.5°F10.3°C 39.2°F4.0°C 65% 2.0 mph SW3.2 kmh SW 3.6 mph5.8 kmh 29.95 in1014.2 mb 0.00 in0.0 mm 0.00 in0.0 mm 0.00 in0.0 mm
06:25 PM 50.4°F10.2°C 39.2°F4.0°C 65% 1.9 mph WSW3.1 kmh WSW 2.9 mph4.7 kmh 29.95 in1014.2 mb 0.00 in0.0 mm 0.00 in0.0 mm 0.00 in0.0 mm
06:30 PM 50.4°F10.2°C 39.2°F4.0°C 65% 1.8 mph WSW2.9 kmh WSW 2.9 mph4.7 kmh 29.95 in1014.2 mb 0.00 in0.0 mm 0.00 in0.0 mm 0.00 in0.0 mm
06:35 PM 50.4°F10.2°C 39.2°F4.0°C 65% 1.2 mph WSW1.9 kmh WSW 1.6 mph2.6 kmh 29.95 in1014.2 mb 0.00 in0.0 mm 0.00 in0.0 mm 0.00 in0.0 mm
06:40 PM 50.2°F10.1°C 39.2°F4.0°C 65% 1.2 mph SW1.9 kmh SW 2.5 mph4.0 kmh 29.95 in1014.2 mb 0.00 in0.0 mm 0.00 in0.0 mm 0.00 in0.0 mm
06:45 PM 50.0°F10.0°C 39.2°F4.0°C 65% 1.0 mph SW1.6 kmh SW 2.5 mph4.0 kmh 29.95 in1014.2 mb 0.00 in0.0 mm 0.00 in0.0 mm 0.00 in0.0 mm
06:50 PM 50.0°F10.0°C 39.2°F4.0°C 66% 1.7 mph SW2.7 kmh SW 3.4 mph5.5 kmh 29.95 in1014.2 mb 0.00 in0.0 mm 0.00 in0.0 mm 0.00 in0.0 mm
06:55 PM 50.0°F10.0°C 39.2°F4.0°C 66% 1.7 mph SW2.7 kmh SW 3.4 mph5.5 kmh 29.95 in1014.2 mb 0.00 in0.0 mm 0.00 in0.0 mm 0.00 in0.0 mm
07:00 PM 49.8°F9.9°C 39.2°F4.0°C 66% 0.3 mph WSW0.5 kmh WSW 2.2 mph3.5 kmh 29.95 in1014.2 mb 0.00 in0.0 mm 0.00 in0.0 mm 0.00 in0.0 mm
07:05 PM 49.6°F9.8°C 39.2°F4.0°C 66% 0.3 mph SW0.5 kmh SW 1.3 mph2.1 kmh 29.95 in1014.2 mb 0.00 in0.0 mm 0.00 in0.0 mm 0.00 in0.0 mm
07:10 PM 49.6°F9.8°C 39.2°F4.0°C 66% 1.0 mph SW1.6 kmh SW 2.7 mph4.3 kmh 29.95 in1014.2 mb 0.00 in0.0 mm 0.00 in0.0 mm 0.00 in0.0 mm
07:15 PM 49.6°F9.8°C 39.2°F4.0°C 67% 1.2 mph SW1.9 kmh SW 2.7 mph4.3 kmh 29.95 in1014.2 mb 0.00 in0.0 mm 0.00 in0.0 mm 0.00 in0.0 mm
07:20 PM 49.5°F9.7°C 39.2°F4.0°C 67% 1.3 mph SSW2.1 kmh SSW 1.6 mph2.6 kmh 29.92 in1013.2 mb 0.00 in0.0 mm 0.00 in0.0 mm 0.00 in0.0 mm
07:25 PM 49.5°F9.7°C 39.2°F4.0°C 67% 1.5 mph SSW2.4 kmh SSW 3.8 mph6.1 kmh 29.92 in1013.2 mb 0.00 in0.0 mm 0.00 in0.0 mm 0.00 in0.0 mm
07:30 PM 49.3°F9.6°C 39.2°F4.0°C 67% 1.3 mph SSW2.1 kmh SSW 3.8 mph6.1 kmh 29.92 in1013.2 mb 0.00 in0.0 mm 0.00 in0.0 mm 0.00 in0.0 mm
07:35 PM 49.1°F9.5°C 39.2°F4.0°C 67% 1.8 mph SSW2.9 kmh SSW 4.9 mph7.9 kmh 29.92 in1013.2 mb 0.00 in0.0 mm 0.00 in0.0 mm 0.00 in0.0 mm
07:40 PM 49.1°F9.5°C 39.2°F4.0°C 68% 2.1 mph SSW3.4 kmh SSW 4.9 mph7.9 kmh 29.92 in1013.2 mb 0.00 in0.0 mm 0.00 in0.0 mm 0.00 in0.0 mm
07:45 PM 48.9°F9.4°C 39.2°F4.0°C 68% 2.2 mph S3.5 kmh S 3.4 mph5.5 kmh 29.92 in1013.2 mb 0.00 in0.0 mm 0.00 in0.0 mm 0.00 in0.0 mm
07:50 PM 48.9°F9.4°C 39.2°F4.0°C 68% 2.2 mph S3.5 kmh S 3.1 mph5.0 kmh 29.92 in1013.2 mb 0.00 in0.0 mm 0.00 in0.0 mm 0.00 in0.0 mm
07:55 PM 48.7°F9.3°C 39.2°F4.0°C 69% 3.4 mph SW5.5 kmh SW 4.3 mph6.9 kmh 29.92 in1013.2 mb 0.00 in0.0 mm 0.00 in0.0 mm 0.00 in0.0 mm
08:00 PM 48.7°F9.3°C 39.2°F4.0°C 69% 4.5 mph SSW7.2 kmh SSW 5.6 mph9.0 kmh 29.92 in1013.2 mb 0.00 in0.0 mm 0.00 in0.0 mm 0.00 in0.0 mm
08:05 PM 48.7°F9.3°C 39.2°F4.0°C 69% 5.0 mph SSE8.0 kmh SSE 5.6 mph9.0 kmh 29.92 in1013.2 mb 0.00 in0.0 mm 0.00 in0.0 mm 0.00 in0.0 mm
08:10 PM 48.6°F9.2°C 39.2°F4.0°C 69% 5.6 mph S9.0 kmh S 6.5 mph10.5 kmh 29.89 in1012.2 mb 0.00 in0.0 mm 0.00 in0.0 mm 0.00 in0.0 mm
08:15 PM 48.6°F9.2°C 39.2°F4.0°C 69% 3.9 mph SSW6.3 kmh SSW 6.5 mph10.5 kmh 29.89 in1012.2 mb 0.00 in0.0 mm 0.00 in0.0 mm 0.00 in0.0 mm
08:20 PM 48.6°F9.2°C 39.2°F4.0°C 70% 3.4 mph SSW5.5 kmh SSW 6.5 mph10.5 kmh 29.89 in1012.2 mb 0.00 in0.0 mm 0.00 in0.0 mm 0.00 in0.0 mm
08:25 PM 48.6°F9.2°C 39.2°F4.0°C 70% 3.8 mph SSW6.1 kmh SSW 5.6 mph9.0 kmh 29.89 in1012.2 mb 0.00 in0.0 mm 0.00 in0.0 mm 0.00 in0.0 mm
08:30 PM 48.6°F9.2°C 39.2°F4.0°C 70% 3.1 mph SW5.0 kmh SW 5.6 mph9.0 kmh 29.89 in1012.2 mb 0.00 in0.0 mm 0.00 in0.0 mm 0.00 in0.0 mm
08:35 PM 48.6°F9.2°C 41.0°F5.0°C 71% 1.8 mph SW2.9 kmh SW 3.4 mph5.5 kmh 29.89 in1012.2 mb 0.00 in0.0 mm 0.00 in0.0 mm 0.00 in0.0 mm
08:40 PM 48.6°F9.2°C 41.0°F5.0°C 71% 2.0 mph S3.2 kmh S 4.3 mph6.9 kmh 29.89 in1012.2 mb 0.00 in0.0 mm 0.00 in0.0 mm 0.00 in0.0 mm
08:45 PM 48.6°F9.2°C 39.2°F4.0°C 70% 2.8 mph S4.5 kmh S 4.3 mph6.9 kmh 29.89 in1012.2 mb 0.00 in0.0 mm 0.00 in0.0 mm 0.00 in0.0 mm
08:50 PM 48.4°F9.1°C 39.2°F4.0°C 71% 3.3 mph SSW5.3 kmh SSW 4.0 mph6.4 kmh 29.89 in1012.2 mb 0.00 in0.0 mm 0.00 in0.0 mm 0.00 in0.0 mm
08:55 PM 48.4°F9.1°C 39.2°F4.0°C 71% 3.5 mph SSW5.6 kmh SSW 4.0 mph6.4 kmh 29.89 in1012.2 mb 0.00 in0.0 mm 0.00 in0.0 mm 0.00 in0.0 mm
09:00 PM 48.4°F9.1°C 41.0°F5.0°C 72% 3.6 mph SSW5.8 kmh SSW 3.8 mph6.1 kmh 29.89 in1012.2 mb 0.00 in0.0 mm 0.00 in0.0 mm 0.00 in0.0 mm
09:05 PM 48.4°F9.1°C 41.0°F5.0°C 72% 3.6 mph SSW5.8 kmh SSW 4.3 mph6.9 kmh 29.86 in1011.2 mb 0.00 in0.0 mm 0.00 in0.0 mm 0.00 in0.0 mm
09:10 PM 48.4°F9.1°C 39.2°F4.0°C 71% 3.5 mph SSW5.6 kmh SSW 4.7 mph7.6 kmh 29.86 in1011.2 mb 0.00 in0.0 mm 0.00 in0.0 mm 0.00 in0.0 mm
09:15 PM 48.4°F9.1°C 41.0°F5.0°C 72% 3.5 mph SSW5.6 kmh SSW 5.6 mph9.0 kmh 29.86 in1011.2 mb 0.00 in0.0 mm 0.00 in0.0 mm 0.00 in0.0 mm
09:20 PM 48.4°F9.1°C 41.0°F5.0°C 72% 3.2 mph SSW5.1 kmh SSW 5.6 mph9.0 kmh 29.86 in1011.2 mb 0.00 in0.0 mm 0.00 in0.0 mm 0.00 in0.0 mm
09:25 PM 48.4°F9.1°C 41.0°F5.0°C 72% 4.1 mph S6.6 kmh S 8.1 mph13.0 kmh 29.86 in1011.2 mb 0.00 in0.0 mm 0.00 in0.0 mm 0.00 in0.0 mm
09:30 PM 48.4°F9.1°C 41.0°F5.0°C 72% 4.5 mph SSW7.2 kmh SSW 8.1 mph13.0 kmh 29.86 in1011.2 mb 0.00 in0.0 mm 0.00 in0.0 mm 0.00 in0.0 mm
09:35 PM 48.4°F9.1°C 41.0°F5.0°C 72% 4.1 mph SSW6.6 kmh SSW 8.1 mph13.0 kmh 29.83 in1010.2 mb 0.00 in0.0 mm 0.00 in0.0 mm 0.00 in0.0 mm
09:40 PM 48.4°F9.1°C 41.0°F5.0°C 72% 4.3 mph S6.9 kmh S 9.2 mph14.8 kmh 29.83 in1010.2 mb 0.00 in0.0 mm 0.00 in0.0 mm 0.00 in0.0 mm
09:45 PM 48.2°F9.0°C 41.0°F5.0°C 72% 4.0 mph SSW6.4 kmh SSW 9.2 mph14.8 kmh 29.83 in1010.2 mb 0.00 in0.0 mm 0.00 in0.0 mm 0.00 in0.0 mm
09:50 PM 48.2°F9.0°C 41.0°F5.0°C 73% 4.0 mph SSW6.4 kmh SSW 7.2 mph11.6 kmh 29.83 in1010.2 mb 0.00 in0.0 mm 0.00 in0.0 mm 0.00 in0.0 mm
09:55 PM 48.2°F9.0°C 41.0°F5.0°C 73% 3.9 mph S6.3 kmh S 7.2 mph11.6 kmh 29.83 in1010.2 mb 0.00 in0.0 mm 0.00 in0.0 mm 0.00 in0.0 mm
10:00 PM 48.2°F9.0°C 41.0°F5.0°C 73% 4.0 mph SSW6.4 kmh SSW 7.8 mph12.6 kmh 29.83 in1010.2 mb 0.00 in0.0 mm 0.00 in0.0 mm 0.00 in0.0 mm
10:05 PM 48.2°F9.0°C 41.0°F5.0°C 73% 4.2 mph SSW6.8 kmh SSW 7.8 mph12.6 kmh 29.80 in1009.1 mb 0.00 in0.0 mm 0.00 in0.0 mm 0.00 in0.0 mm
10:10 PM 48.2°F9.0°C 41.0°F5.0°C 73% 4.2 mph S6.8 kmh S 7.8 mph12.6 kmh 29.80 in1009.1 mb 0.00 in0.0 mm 0.00 in0.0 mm 0.00 in0.0 mm
10:15 PM 48.2°F9.0°C 41.0°F5.0°C 74% 4.4 mph S7.1 kmh S 6.0 mph9.7 kmh 29.80 in1009.1 mb 0.00 in0.0 mm 0.00 in0.0 mm 0.00 in0.0 mm
10:20 PM 48.2°F9.0°C 41.0°F5.0°C 74% 4.0 mph SSW6.4 kmh SSW 6.0 mph9.7 kmh 29.80 in1009.1 mb 0.00 in0.0 mm 0.00 in0.0 mm 0.00 in0.0 mm
10:25 PM 48.2°F9.0°C 41.0°F5.0°C 74% 4.0 mph SSW6.4 kmh SSW 6.0 mph9.7 kmh 29.80 in1009.1 mb 0.00 in0.0 mm 0.00 in0.0 mm 0.00 in0.0 mm
10:30 PM 48.2°F9.0°C 41.0°F5.0°C 74% 3.8 mph SSW6.1 kmh SSW 6.0 mph9.7 kmh 29.80 in1009.1 mb 0.00 in0.0 mm 0.00 in0.0 mm 0.00 in0.0 mm
10:35 PM 48.2°F9.0°C 41.0°F5.0°C 74% 3.6 mph SW5.8 kmh SW 7.8 mph12.6 kmh 29.80 in1009.1 mb 0.00 in0.0 mm 0.00 in0.0 mm 0.00 in0.0 mm
10:40 PM 48.4°F9.1°C 41.0°F5.0°C 74% 3.6 mph SSW5.8 kmh SSW 7.8 mph12.6 kmh 29.80 in1009.1 mb 0.00 in0.0 mm 0.00 in0.0 mm 0.00 in0.0 mm
10:45 PM 48.4°F9.1°C 41.0°F5.0°C 74% 3.0 mph S4.8 kmh S 7.8 mph12.6 kmh 29.80 in1009.1 mb 0.00 in0.0 mm 0.00 in0.0 mm 0.00 in0.0 mm
10:50 PM 48.6°F9.2°C 42.8°F6.0°C 75% 2.8 mph SSW4.5 kmh SSW 6.3 mph10.1 kmh 29.80 in1009.1 mb 0.00 in0.0 mm 0.00 in0.0 mm 0.00 in0.0 mm
10:55 PM 48.6°F9.2°C 41.0°F5.0°C 74% 4.3 mph SSW6.9 kmh SSW 7.4 mph11.9 kmh 29.80 in1009.1 mb 0.00 in0.0 mm 0.00 in0.0 mm 0.00 in0.0 mm
11:00 PM 48.7°F9.3°C 42.8°F6.0°C 75% 5.0 mph SW8.0 kmh SW 10.1 mph16.3 kmh 29.80 in1009.1 mb 0.00 in0.0 mm 0.00 in0.0 mm 0.00 in0.0 mm
11:05 PM 48.7°F9.3°C 42.8°F6.0°C 75% 3.3 mph SW5.3 kmh SW 10.1 mph16.3 kmh 29.77 in1008.1 mb 0.00 in0.0 mm 0.00 in0.0 mm 0.00 in0.0 mm
11:10 PM 48.7°F9.3°C 42.8°F6.0°C 75% 2.6 mph SW4.2 kmh SW 5.8 mph9.3 kmh 29.77 in1008.1 mb 0.00 in0.0 mm 0.00 in0.0 mm 0.00 in0.0 mm
11:15 PM 48.9°F9.4°C 42.8°F6.0°C 75% 2.8 mph SSW4.5 kmh SSW 3.8 mph6.1 kmh 29.77 in1008.1 mb 0.00 in0.0 mm 0.00 in0.0 mm 0.00 in0.0 mm
11:20 PM 48.9°F9.4°C 42.8°F6.0°C 75% 3.7 mph SW6.0 kmh SW 4.9 mph7.9 kmh 29.77 in1008.1 mb 0.00 in0.0 mm 0.00 in0.0 mm 0.00 in0.0 mm
11:25 PM 48.9°F9.4°C 42.8°F6.0°C 75% 4.9 mph SW7.9 kmh SW 9.6 mph15.4 kmh 29.77 in1008.1 mb 0.00 in0.0 mm 0.00 in0.0 mm 0.00 in0.0 mm
11:30 PM 48.9°F9.4°C 42.8°F6.0°C 76% 4.8 mph SW7.7 kmh SW 9.6 mph15.4 kmh 29.77 in1008.1 mb 0.00 in0.0 mm 0.00 in0.0 mm 0.00 in0.0 mm
11:35 PM 49.1°F9.5°C 42.8°F6.0°C 76% 4.8 mph SW7.7 kmh SW 7.6 mph12.2 kmh 29.74 in1007.1 mb 0.00 in0.0 mm 0.00 in0.0 mm 0.00 in0.0 mm
11:40 PM 49.1°F9.5°C 42.8°F6.0°C 76% 4.6 mph SSW7.4 kmh SSW 8.5 mph13.7 kmh 29.74 in1007.1 mb 0.00 in0.0 mm 0.00 in0.0 mm 0.00 in0.0 mm
11:45 PM 49.3°F9.6°C 42.8°F6.0°C 77% 3.5 mph SW5.6 kmh SW 8.5 mph13.7 kmh 29.74 in1007.1 mb 0.00 in0.0 mm 0.00 in0.0 mm 0.00 in0.0 mm
11:50 PM 49.5°F9.7°C 42.8°F6.0°C 76% 3.7 mph SW6.0 kmh SW 8.7 mph14.0 kmh 29.74 in1007.1 mb 0.00 in0.0 mm 0.00 in0.0 mm 0.00 in0.0 mm
11:55 PM 49.5°F9.7°C 42.8°F6.0°C 77% 4.2 mph WSW6.8 kmh WSW 8.7 mph14.0 kmh 29.74 in1007.1 mb 0.00 in0.0 mm 0.00 in0.0 mm 0.00 in0.0 mm